Terminal Aerodrome Forecast
Issued by NWS

Home | Current Version | Previous Version | Text Only | Print | Product List | Glossary On
Versions: 1 2 3 4 5 6 7 8 9 10 11 12
000
FTUS44 KTSA 202300
TAFMLC
TAF
KMLC 202338Z 2100/2124 00000KT P6SM SKC
     FM210900 00000KT 5SM BR SKC
     FM211100 00000KT 2SM BR SKC
      TEMPO 2111/2113 1SM BR BKN002
     FM211500 17003KT P6SM FEW250=

USA.gov is the U.S. government's official web portal to all federal, state and local government web resources and services.